createdAt,value
2018-09-26T00:00:32.623Z,58.95
2018-09-26T00:03:08.712Z,59.32
2018-09-26T00:05:36.530Z,59.52
2018-09-26T00:08:04.314Z,59.40
2018-09-26T00:10:32.127Z,59.48
2018-09-26T00:12:59.902Z,58.99
2018-09-26T00:15:27.586Z,58.70
2018-09-26T00:17:55.516Z,59.07
2018-09-26T00:20:23.214Z,59.35
2018-09-26T00:22:51.054Z,58.26
2018-09-26T00:25:18.711Z,58.49
2018-09-26T00:27:46.414Z,57.47
2018-09-26T00:30:14.230Z,56.96
2018-09-26T00:32:41.981Z,57.86
2018-09-26T00:35:09.734Z,57.51
2018-09-26T00:37:37.540Z,57.57
2018-09-26T00:40:05.801Z,57.28
2018-09-26T00:42:33.565Z,57.24
2018-09-26T00:45:01.372Z,57.29
2018-09-26T00:47:29.246Z,56.94
2018-09-26T00:49:56.992Z,57.22
2018-09-26T00:52:24.748Z,57.36
2018-09-26T00:54:52.466Z,57.81
2018-09-26T00:57:20.149Z,58.21
2018-09-26T00:59:47.873Z,58.01
2018-09-26T01:02:15.535Z,58.54
2018-09-26T01:04:43.292Z,58.92
2018-09-26T01:07:11.204Z,58.75
2018-09-26T01:09:38.937Z,59.36
2018-09-26T01:12:06.675Z,59.55
2018-09-26T01:14:34.486Z,59.47
2018-09-26T01:17:02.189Z,59.66
2018-09-26T01:19:29.940Z,59.43
2018-09-26T01:21:59.898Z,59.55
2018-09-26T01:24:27.743Z,59.54
2018-09-26T01:26:55.565Z,59.69
2018-09-26T01:29:23.301Z,59.57
2018-09-26T01:31:51.049Z,59.81
2018-09-26T01:34:18.735Z,60.01
2018-09-26T01:36:46.411Z,59.68
2018-09-26T01:39:14.222Z,59.83
2018-09-26T01:41:41.972Z,59.82
2018-09-26T01:44:09.752Z,59.40
2018-09-26T01:46:37.450Z,59.48
2018-09-26T01:49:05.277Z,59.69
2018-09-26T01:51:33.073Z,59.47
2018-09-26T01:54:00.765Z,59.86
2018-09-26T01:56:28.542Z,59.55
2018-09-26T01:58:56.300Z,59.68
2018-09-26T02:01:25.650Z,59.47
2018-09-26T02:03:53.509Z,59.75
2018-09-26T02:06:21.289Z,59.51
2018-09-26T02:08:49.024Z,59.47
2018-09-26T02:11:16.840Z,59.58
2018-09-26T02:13:44.589Z,59.50
2018-09-26T02:16:12.385Z,59.66
2018-09-26T02:18:40.095Z,59.68
2018-09-26T02:21:07.917Z,59.28
2018-09-26T02:23:35.697Z,59.53
2018-09-26T02:26:03.425Z,59.65
2018-09-26T02:28:31.215Z,59.87
2018-09-26T02:30:58.984Z,60.16
2018-09-26T02:33:26.782Z,60.23
2018-09-26T02:35:54.530Z,60.28
2018-09-26T02:38:22.220Z,60.22
2018-09-26T02:40:49.919Z,59.81
2018-09-26T02:43:17.826Z,59.44
2018-09-26T02:45:45.580Z,59.21
2018-09-26T02:48:18.762Z,59.28
2018-09-26T02:50:46.560Z,59.38
2018-09-26T02:53:14.275Z,59.23
2018-09-26T02:55:42.072Z,59.27
2018-09-26T02:58:09.738Z,59.46
2018-09-26T03:00:37.497Z,59.66
2018-09-26T03:03:05.388Z,59.83
2018-09-26T03:05:33.140Z,60.07
2018-09-26T03:08:00.900Z,59.75
2018-09-26T03:10:28.689Z,59.43
2018-09-26T03:12:56.484Z,59.68
2018-09-26T03:15:24.966Z,60.15
2018-09-26T03:17:53.009Z,59.92
2018-09-26T03:20:20.777Z,59.20
2018-09-26T03:22:48.562Z,59.02
2018-09-26T03:25:16.334Z,59.61
2018-09-26T03:27:44.118Z,59.34
2018-09-26T03:30:11.869Z,59.29
2018-09-26T03:32:39.689Z,59.69
2018-09-26T03:35:07.434Z,59.53
2018-09-26T03:37:35.148Z,58.32
2018-09-26T03:40:02.898Z,58.31
2018-09-26T03:42:30.621Z,58.76
2018-09-26T03:44:58.378Z,58.92
2018-09-26T03:47:26.289Z,58.93
2018-09-26T03:49:54.024Z,58.77
2018-09-26T03:52:21.780Z,59.01
2018-09-26T03:54:49.580Z,58.83
2018-09-26T03:57:17.285Z,57.34
2018-09-26T03:59:44.987Z,58.03
2018-09-26T04:02:12.850Z,58.39
2018-09-26T04:04:40.580Z,56.21
2018-09-26T04:07:08.254Z,57.27
2018-09-26T04:09:35.954Z,58.30
2018-09-26T04:12:03.737Z,57.73
2018-09-26T04:14:31.446Z,56.90
2018-09-26T04:16:59.155Z,56.25
2018-09-26T04:19:26.910Z,57.99
2018-09-26T04:21:54.720Z,57.97
2018-09-26T04:24:22.498Z,57.41
2018-09-26T04:26:50.518Z,57.58
2018-09-26T04:29:17.965Z,57.95
2018-09-26T04:31:45.673Z,57.39
2018-09-26T04:34:13.441Z,57.14
2018-09-26T04:36:41.206Z,57.74
2018-09-26T04:39:10.512Z,56.24
2018-09-26T04:41:38.259Z,56.50
2018-09-26T04:44:05.981Z,56.47
2018-09-26T04:46:33.808Z,57.47
2018-09-26T04:49:01.578Z,57.63
2018-09-26T04:51:29.513Z,57.19
2018-09-26T04:53:57.198Z,56.72
2018-09-26T04:56:25.006Z,56.21
2018-09-26T04:58:52.769Z,57.37
2018-09-26T05:01:20.541Z,56.18
2018-09-26T05:03:48.288Z,57.50
2018-09-26T05:06:16.094Z,57.44
2018-09-26T05:08:44.248Z,57.81
2018-09-26T05:11:12.135Z,56.35
2018-09-26T05:13:40.267Z,57.49
2018-09-26T05:16:07.959Z,56.87
2018-09-26T05:18:35.840Z,57.28
2018-09-26T05:21:03.709Z,55.97
2018-09-26T05:23:31.615Z,53.79
2018-09-26T05:25:59.569Z,53.34
2018-09-26T05:28:27.416Z,52.99
2018-09-26T05:30:55.497Z,52.71
2018-09-26T05:33:23.477Z,53.57
2018-09-26T05:35:51.334Z,54.92
2018-09-26T05:38:19.345Z,53.30
2018-09-26T05:40:47.177Z,52.69
2018-09-26T05:43:15.174Z,54.37
2018-09-26T05:45:43.341Z,55.17
2018-09-26T05:48:11.243Z,55.06
2018-09-26T05:50:39.194Z,55.16
2018-09-26T05:53:10.396Z,54.84
2018-09-26T05:55:39.221Z,53.99
2018-09-26T05:58:08.995Z,53.49
2018-09-26T06:00:40.957Z,52.81
2018-09-26T06:03:11.878Z,51.88
2018-09-26T06:05:39.744Z,54.59
2018-09-26T06:08:14.828Z,55.76
2018-09-26T06:10:46.776Z,56.75
2018-09-26T06:13:14.738Z,56.78
2018-09-26T06:15:42.497Z,54.43
2018-09-26T06:18:10.334Z,53.83
2018-09-26T06:20:38.540Z,51.85
2018-09-26T06:23:08.942Z,52.69
2018-09-26T06:25:37.139Z,53.42
2018-09-26T06:28:05.084Z,51.64
2018-09-26T06:30:32.901Z,50.96
2018-09-26T06:33:01.800Z,49.71
2018-09-26T06:35:34.211Z,48.55
2018-09-26T06:38:06.353Z,46.87
2018-09-26T06:40:35.247Z,47.00
2018-09-26T06:43:03.002Z,46.38
2018-09-26T06:45:37.376Z,46.17
2018-09-26T06:48:07.018Z,46.40
2018-09-26T06:50:34.903Z,46.50
2018-09-26T06:53:02.742Z,46.67
2018-09-26T06:55:31.674Z,46.65
2018-09-26T06:58:01.420Z,46.99
2018-09-26T07:00:29.392Z,46.60
2018-09-26T07:02:58.185Z,45.34
2018-09-26T07:05:28.010Z,45.14
2018-09-26T07:08:05.003Z,44.39
2018-09-26T07:10:46.182Z,43.42
2018-09-26T07:13:29.325Z,42.11
2018-09-26T07:15:57.195Z,40.74
2018-09-26T07:18:30.159Z,39.98
2018-09-26T07:20:58.096Z,38.82
2018-09-26T07:23:26.316Z,36.90
2018-09-26T07:25:56.555Z,35.04
2018-09-26T07:28:29.242Z,33.91
2018-09-26T07:31:01.341Z,32.28
2018-09-26T07:33:36.331Z,31.46
2018-09-26T07:38:52.861Z,30.54
2018-09-26T07:41:21.020Z,31.86
2018-09-26T07:43:49.125Z,32.00
2018-09-26T07:46:17.207Z,32.14
2018-09-26T07:48:45.177Z,31.31
2018-09-26T07:51:13.249Z,31.33
2018-09-26T07:53:41.310Z,30.71
2018-09-26T08:03:07.147Z,29.20
2018-09-26T08:05:35.303Z,28.54
2018-09-26T08:08:03.480Z,27.39
2018-09-26T08:10:31.449Z,27.16
2018-09-26T08:12:59.458Z,26.48
2018-09-26T08:15:27.285Z,27.23
2018-09-26T08:17:55.650Z,26.17
2018-09-26T08:20:23.832Z,26.44
2018-09-26T08:22:51.712Z,25.24
2018-09-26T08:25:19.572Z,23.99
2018-09-26T08:27:47.622Z,23.62
2018-09-26T08:30:15.624Z,23.31
2018-09-26T08:32:43.594Z,22.69
2018-09-26T08:35:11.981Z,21.72
2018-09-26T08:37:39.864Z,21.10
2018-09-26T08:40:07.954Z,20.85
2018-09-26T08:42:35.958Z,19.96
2018-09-26T08:45:03.961Z,20.37
2018-09-26T08:47:31.865Z,19.39
2018-09-26T08:49:59.818Z,19.67
2018-09-26T08:52:27.793Z,19.53
2018-09-26T08:54:55.939Z,19.22
2018-09-26T08:57:23.729Z,18.46
2018-09-26T08:59:51.684Z,18.54
2018-09-26T09:02:19.615Z,18.48
2018-09-26T09:04:48.071Z,18.55
2018-09-26T09:07:16.308Z,17.70
2018-09-26T09:09:44.155Z,17.62
2018-09-26T09:12:12.081Z,17.72
2018-09-26T09:14:40.099Z,17.94
2018-09-26T09:17:07.863Z,17.90
2018-09-26T09:19:35.814Z,17.78
2018-09-26T09:22:03.831Z,17.44
2018-09-26T09:24:31.797Z,18.76
2018-09-26T09:26:59.862Z,19.05
2018-09-26T09:29:27.905Z,18.57
2018-09-26T09:31:55.802Z,19.52
2018-09-26T09:34:23.760Z,20.20
2018-09-26T09:36:51.743Z,20.10
2018-09-26T09:39:19.810Z,19.97
2018-09-26T09:41:47.746Z,19.24
2018-09-26T09:44:15.577Z,20.40
2018-09-26T09:46:43.540Z,19.87
2018-09-26T09:49:11.370Z,20.18
2018-09-26T09:51:39.837Z,20.36
2018-09-26T09:54:07.870Z,20.93
2018-09-26T09:56:36.025Z,21.46
2018-09-26T09:59:04.325Z,22.02
2018-09-26T10:01:32.209Z,22.06
2018-09-26T10:04:00.538Z,21.79
2018-09-26T10:06:29.083Z,22.01
2018-09-26T10:08:57.293Z,21.62
2018-09-26T10:11:25.312Z,20.59
2018-09-26T10:13:53.168Z,21.23
2018-09-26T10:16:21.192Z,21.86
2018-09-26T10:18:49.034Z,20.70
2018-09-26T10:21:17.017Z,19.24
2018-09-26T10:23:45.094Z,19.11
2018-09-26T10:26:13.041Z,19.85
2018-09-26T10:28:41.312Z,19.83
2018-09-26T10:31:09.429Z,20.13
2018-09-26T10:33:37.467Z,19.90
2018-09-26T10:36:05.344Z,19.48
2018-09-26T10:38:33.235Z,19.52
2018-09-26T10:41:01.224Z,19.24
2018-09-26T10:43:29.064Z,19.22
2018-09-26T10:45:57.163Z,19.38
2018-09-26T10:48:25.107Z,19.67
2018-09-26T10:50:52.979Z,19.80
2018-09-26T10:53:20.904Z,19.01
2018-09-26T10:55:48.750Z,18.32
2018-09-26T10:58:16.594Z,17.78
2018-09-26T11:00:44.494Z,17.33
2018-09-26T11:03:12.352Z,17.62
2018-09-26T11:05:40.267Z,16.42
2018-09-26T11:08:08.589Z,16.14
2018-09-26T11:10:36.686Z,15.51
2018-09-26T11:13:04.873Z,16.51
2018-09-26T11:15:32.749Z,15.07
2018-09-26T11:18:00.687Z,15.97
2018-09-26T11:20:28.898Z,16.36
2018-09-26T11:22:57.115Z,16.77
2018-09-26T11:25:25.033Z,16.66
2018-09-26T11:27:53.094Z,17.18
2018-09-26T11:30:21.125Z,17.11
2018-09-26T11:32:48.960Z,17.83
2018-09-26T11:35:16.832Z,19.12
2018-09-26T11:37:44.756Z,19.84
2018-09-26T11:40:12.966Z,18.94
2018-09-26T11:42:40.954Z,20.06
2018-09-26T11:45:08.965Z,18.74
2018-09-26T11:47:37.194Z,17.90
2018-09-26T11:50:05.308Z,16.82
2018-09-26T11:52:33.408Z,16.71
2018-09-26T11:55:01.469Z,15.68
2018-09-26T11:57:29.602Z,14.53
2018-09-26T11:59:57.720Z,14.20
2018-09-26T12:02:25.835Z,13.56
2018-09-26T12:04:53.672Z,13.90
2018-09-26T12:07:21.553Z,14.66
2018-09-26T12:09:49.525Z,16.10
2018-09-26T12:12:17.619Z,15.18
2018-09-26T12:14:45.452Z,15.10
2018-09-26T12:17:13.390Z,15.19
2018-09-26T12:19:41.297Z,14.66
2018-09-26T12:22:09.327Z,13.95
2018-09-26T12:24:37.324Z,13.21
2018-09-26T12:27:05.435Z,13.68
2018-09-26T12:29:33.389Z,12.55
2018-09-26T12:32:01.337Z,12.57
2018-09-26T12:34:29.600Z,12.53
2018-09-26T12:36:57.620Z,11.08
2018-09-26T12:39:25.456Z,11.53
2018-09-26T12:41:53.474Z,11.35
2018-09-26T12:44:21.317Z,12.13
2018-09-26T12:46:49.287Z,12.11
2018-09-26T12:49:17.185Z,12.71
2018-09-26T12:51:45.098Z,13.14
2018-09-26T12:54:13.619Z,12.66
2018-09-26T12:56:41.631Z,14.23
2018-09-26T12:59:09.455Z,14.56
2018-09-26T13:01:37.432Z,15.03
2018-09-26T13:04:05.700Z,14.70
2018-09-26T13:06:33.602Z,15.98
2018-09-26T13:09:01.565Z,16.30
2018-09-26T13:11:29.454Z,16.12
2018-09-26T13:13:57.414Z,16.44
2018-09-26T13:16:25.473Z,17.01
2018-09-26T13:18:53.743Z,16.83
2018-09-26T13:21:21.502Z,16.58
2018-09-26T13:23:49.554Z,16.20
2018-09-26T13:26:17.478Z,15.49
2018-09-26T13:28:45.334Z,16.06
2018-09-26T13:31:13.317Z,14.60
2018-09-26T13:33:41.209Z,15.14
2018-09-26T13:36:09.229Z,15.07
2018-09-26T13:38:37.014Z,14.58
2018-09-26T13:41:05.121Z,14.86
2018-09-26T13:43:33.246Z,16.19
2018-09-26T13:46:01.538Z,17.34
2018-09-26T13:48:29.493Z,18.18
2018-09-26T13:50:57.612Z,19.44
2018-09-26T13:53:25.587Z,19.39
2018-09-26T13:55:53.489Z,20.16
2018-09-26T13:58:21.361Z,19.88
2018-09-26T14:00:49.182Z,20.83
2018-09-26T14:03:17.195Z,21.07
2018-09-26T14:05:45.126Z,21.29
2018-09-26T14:08:12.999Z,21.58
2018-09-26T14:10:40.925Z,21.17
2018-09-26T14:13:08.748Z,20.51
2018-09-26T14:15:36.890Z,20.81
2018-09-26T14:18:05.158Z,20.04
2018-09-26T14:20:32.951Z,20.49
2018-09-26T14:23:00.871Z,20.49
2018-09-26T14:25:29.041Z,20.78
2018-09-26T14:27:56.911Z,20.77
2018-09-26T14:30:25.183Z,21.29
2018-09-26T14:32:53.141Z,20.94
2018-09-26T14:35:21.427Z,21.23
2018-09-26T14:37:49.274Z,21.90
2018-09-26T14:40:17.251Z,22.69
2018-09-26T14:42:45.172Z,23.50
2018-09-26T14:45:13.329Z,23.27
2018-09-26T14:47:41.481Z,23.54
2018-09-26T14:50:09.447Z,24.06
2018-09-26T14:52:37.436Z,23.88
2018-09-26T14:55:05.430Z,23.37
2018-09-26T14:57:33.620Z,23.27
2018-09-26T15:00:01.443Z,24.08
2018-09-26T15:02:29.529Z,24.11
2018-09-26T15:04:57.974Z,24.23
2018-09-26T15:07:26.093Z,24.75
2018-09-26T15:09:54.153Z,24.98
2018-09-26T15:12:22.134Z,25.54
2018-09-26T15:14:49.991Z,25.13
2018-09-26T15:17:17.879Z,24.80
2018-09-26T15:19:45.789Z,23.84
2018-09-26T15:22:13.713Z,23.38
2018-09-26T15:24:41.571Z,23.25
2018-09-26T15:27:09.492Z,23.31
2018-09-26T15:29:37.317Z,23.27
2018-09-26T15:32:05.477Z,23.29
2018-09-26T15:34:33.181Z,23.37
2018-09-26T15:37:00.904Z,22.44
2018-09-26T15:42:27.155Z,22.39
2018-09-26T20:58:53.700Z,32.05
2018-09-26T21:04:39.655Z,19.42
2018-09-26T21:07:08.280Z,21.81
2018-09-26T21:09:36.841Z,23.97
2018-09-26T21:12:05.608Z,25.36
2018-09-26T21:14:34.154Z,26.78
2018-09-26T21:17:02.722Z,27.62
2018-09-26T21:19:31.425Z,29.58
2018-09-26T21:22:00.269Z,27.91
2018-09-26T21:24:28.940Z,28.53
2018-09-26T21:26:57.756Z,28.93
2018-09-26T21:29:26.701Z,29.19
2018-09-26T21:31:56.209Z,29.61
2018-09-26T21:36:54.593Z,30.19
2018-09-26T21:39:22.278Z,30.79
2018-09-26T21:41:50.051Z,31.34
2018-09-26T21:44:17.790Z,31.68
2018-09-26T21:46:45.492Z,32.09
2018-09-26T21:49:13.175Z,32.40
2018-09-26T21:51:40.855Z,32.67
2018-09-26T21:54:08.575Z,32.64
2018-09-26T21:56:36.301Z,32.82
2018-09-26T21:59:04.036Z,32.84
2018-09-26T22:01:31.956Z,32.62
2018-09-26T22:03:59.840Z,32.80
2018-09-26T22:06:27.606Z,32.82
2018-09-26T22:08:55.388Z,32.31
2018-09-26T22:11:23.368Z,32.28
2018-09-26T22:13:51.098Z,32.29
2018-09-26T22:16:18.829Z,31.69
2018-09-26T22:18:46.537Z,32.08
2018-09-26T22:21:14.201Z,32.39
2018-09-26T22:23:41.904Z,32.20
2018-09-26T22:26:09.710Z,31.94
2018-09-26T22:28:37.483Z,32.15
2018-09-26T22:31:05.220Z,32.07
2018-09-26T22:33:32.906Z,31.96
2018-09-26T22:36:00.685Z,31.98
2018-09-26T22:38:28.382Z,32.19
2018-09-26T22:40:56.272Z,31.96
2018-09-26T22:43:23.954Z,32.20
2018-09-26T22:45:51.689Z,32.20
2018-09-26T22:48:19.596Z,32.03
2018-09-26T22:50:47.360Z,31.83
2018-09-26T22:53:15.179Z,32.08
2018-09-26T22:55:42.892Z,31.88
2018-09-26T22:58:10.590Z,31.75
2018-09-26T23:00:38.283Z,32.22
2018-09-26T23:03:06.142Z,32.08
2018-09-26T23:05:33.828Z,32.12
2018-09-26T23:08:01.546Z,31.67
2018-09-26T23:10:29.260Z,31.60
2018-09-26T23:12:56.966Z,31.49
2018-09-26T23:15:24.788Z,31.57
2018-09-26T23:17:52.570Z,31.82
2018-09-26T23:20:20.370Z,31.84
2018-09-26T23:22:48.106Z,31.55
2018-09-26T23:25:15.843Z,31.55
2018-09-26T23:27:43.514Z,31.67
2018-09-26T23:30:11.222Z,31.37
2018-09-26T23:32:38.969Z,31.43
2018-09-26T23:35:06.707Z,31.58
2018-09-26T23:37:34.412Z,31.46
2018-09-26T23:40:02.120Z,31.56
2018-09-26T23:42:29.799Z,32.13
2018-09-26T23:44:57.481Z,32.27
2018-09-26T23:47:26.145Z,32.31
2018-09-26T23:49:53.825Z,31.99
2018-09-26T23:52:21.567Z,32.03
2018-09-26T23:54:49.715Z,31.95
2018-09-26T23:57:17.381Z,32.36
2018-09-26T23:59:45.116Z,31.74
